Time;durP1;ratioP1;P1;durP2;ratioP2;P2;SDS_P1;SDS_P2;PMS_P1;PMS_P2;Temp;Humidity;BMP_temperature;BMP_pressure;BME280_temperature;BME280_humidity;BME280_pressure;Samples;Min_cycle;Max_cycle;Signal;HPM_P1;HPM_P2
2023/05/18 00:02:25;;;;;;;7.60;2.67;;;5.50;99.90;4.90;101251;;;;575480;245;24134;-81
2023/05/18 00:04:53;;;;;;;8.60;2.83;;;5.90;99.90;4.90;101268;;;;575521;245;24126;-81
2023/05/18 00:07:21;;;;;;;7.37;2.83;;;5.80;99.90;4.90;101251;;;;575552;245;24084;-82
2023/05/18 00:09:49;;;;;;;4.93;2.00;;;5.80;99.90;5.00;101262;;;;575614;245;24079;-82
2023/05/18 00:12:18;;;;;;;8.87;2.43;;;5.80;99.90;5.00;101270;;;;575943;245;24176;-83
2023/05/18 00:14:46;;;;;;;7.27;2.10;;;5.90;99.90;4.90;101266;;;;575341;245;24128;-82
2023/05/18 00:17:14;;;;;;;7.53;2.00;;;5.80;99.90;4.90;101283;;;;575365;245;24094;-83
2023/05/18 00:19:45;;;;;;;7.77;2.60;;;5.80;99.90;4.90;101285;;;;575077;245;24083;-82
2023/05/18 00:22:17;;;;;;;7.23;2.40;;;5.80;99.90;4.90;101288;;;;575240;245;24111;-83
2023/05/18 00:24:39;;;;;;;6.47;2.23;;;5.80;99.90;4.80;101285;;;;574776;245;24093;-83
2023/05/18 00:27:07;;;;;;;8.97;2.20;;;5.70;99.90;4.80;101286;;;;575376;245;24071;-82
2023/05/18 00:29:36;;;;;;;9.57;2.20;;;5.60;99.90;4.70;101286;;;;575368;245;24141;-82
2023/05/18 00:32:03;;;;;;;7.83;2.13;;;5.60;99.90;4.60;101292;;;;575250;245;24092;-82
2023/05/18 00:34:31;;;;;;;7.67;2.37;;;5.50;99.90;4.60;101291;;;;585252;245;24095;-83
2023/05/18 00:36:59;;;;;;;5.07;2.07;;;5.50;99.90;4.60;101294;;;;584121;241;24095;-83
2023/05/18 00:39:27;;;;;;;4.23;1.93;;;5.30;99.90;4.50;101302;;;;575395;245;24070;-82
2023/05/18 00:41:55;;;;;;;10.10;2.63;;;5.60;99.90;4.50;101306;;;;575307;245;24078;-83
2023/05/18 00:44:23;;;;;;;14.23;2.27;;;5.40;99.90;4.50;101306;;;;575660;245;24094;-82
2023/05/18 00:46:51;;;;;;;11.03;3.20;;;5.40;99.90;4.50;101307;;;;575678;245;24083;-81
2023/05/18 00:49:19;;;;;;;7.97;2.43;;;5.60;99.90;4.50;101298;;;;575681;245;24099;-82
2023/05/18 00:51:48;;;;;;;8.23;2.07;;;5.30;99.90;4.50;101306;;;;576913;245;24121;-82
2023/05/18 00:54:19;;;;;;;6.03;2.13;;;5.30;99.90;4.40;101304;;;;576663;244;24146;-83
2023/05/18 00:56:47;;;;;;;9.43;3.00;;;5.60;99.90;4.50;101305;;;;571198;245;35270;-83
2023/05/18 00:59:15;;;;;;;4.47;1.73;;;5.70;99.90;4.40;101313;;;;575768;245;24097;-83
2023/05/18 01:01:45;;;;;;;10.53;2.30;;;5.40;99.90;4.40;101306;;;;584291;241;24169;-82
2023/05/18 01:04:13;;;;;;;10.47;2.30;;;5.50;99.90;4.40;101307;;;;575814;245;24082;-82
2023/05/18 01:06:40;;;;;;;3.57;1.90;;;5.20;99.90;4.30;101308;;;;575797;245;24119;-84
2023/05/18 01:09:08;;;;;;;7.87;3.10;;;5.30;99.90;4.30;101314;;;;575866;245;24133;-82
2023/05/18 01:12:10;;;;;;;15.83;3.50;;;5.30;99.90;4.20;101307;;;;577802;243;24129;-82
2023/05/18 01:15:00;;;;;;;10.67;2.77;;;6.00;99.90;4.20;101304;;;;581355;242;24149;-83
2023/05/18 01:17:54;;;;;;;7.70;2.70;;;5.20;99.90;4.20;101302;;;;579180;241;35307;-82
2023/05/18 01:20:36;;;;;;;11.77;2.97;;;5.10;99.90;4.10;101304;;;;564252;245;24138;-82
2023/05/18 01:23:36;;;;;;;10.13;3.20;;;5.10;99.90;4.10;101306;;;;575525;245;24109;-83
2023/05/18 01:26:16;;;;;;;8.03;2.43;;;5.00;99.90;4.10;101313;;;;575518;245;24114;-82
2023/05/18 01:28:45;;;;;;;7.13;2.43;;;4.80;99.90;4.10;101310;;;;575323;245;24114;-83
2023/05/18 01:31:15;;;;;;;10.73;3.17;;;5.10;99.90;4.00;101314;;;;570227;245;35347;-82
2023/05/18 01:33:40;;;;;;;10.43;2.53;;;5.10;99.90;4.00;101314;;;;570021;245;35261;-82
2023/05/18 01:36:12;;;;;;;12.63;3.10;;;4.80;99.90;4.00;101318;;;;575318;245;26416;-82
2023/05/18 01:38:37;;;;;;;12.67;3.47;;;4.90;99.90;3.90;101309;;;;574867;245;24137;-82
2023/05/18 01:41:23;;;;;;;8.30;3.23;;;4.90;99.90;3.90;101318;;;;575347;245;24106;-83
2023/05/18 01:44:16;;;;;;;12.50;4.00;;;4.80;99.90;3.90;101321;;;;575622;245;24124;-82
2023/05/18 01:46:59;;;;;;;5.03;1.90;;;5.00;99.90;3.80;101319;;;;574333;245;24124;-82
2023/05/18 01:49:47;;;;;;;14.77;3.60;;;4.70;99.90;3.80;101321;;;;575647;245;24135;-84
2023/05/18 01:52:37;;;;;;;8.40;3.03;;;5.20;99.90;3.70;101312;;;;573168;245;24097;-82
2023/05/18 01:55:05;;;;;;;8.90;3.07;;;4.50;99.90;3.70;101317;;;;575663;245;24086;-82
2023/05/18 01:57:35;;;;;;;10.47;3.10;;;4.70;99.90;3.70;101317;;;;584522;241;24120;-82
2023/05/18 02:00:04;;;;;;;13.00;3.40;;;4.70;99.90;3.70;101309;;;;575178;245;24131;-81
2023/05/18 02:02:29;;;;;;;8.70;2.93;;;4.80;99.90;3.70;101322;;;;575909;245;24096;-80
2023/05/18 02:04:57;;;;;;;10.67;3.50;;;4.40;99.90;3.70;101332;;;;576349;245;24118;-81
2023/05/18 02:07:25;;;;;;;11.77;3.43;;;4.80;99.90;3.70;101329;;;;576380;245;24102;-81
2023/05/18 02:09:53;;;;;;;8.80;2.80;;;4.70;99.90;3.70;101325;;;;576113;245;24087;-83
2023/05/18 02:12:21;;;;;;;10.47;2.80;;;4.60;99.90;3.70;101332;;;;575903;245;25174;-83
2023/05/18 02:14:50;;;;;;;15.30;3.80;;;4.60;99.90;3.70;101331;;;;575873;245;24131;-82
2023/05/18 02:17:20;;;;;;;10.40;2.83;;;4.60;99.90;3.70;101338;;;;576193;245;24116;-83
2023/05/18 02:19:47;;;;;;;15.60;3.43;;;4.50;99.90;3.70;101333;;;;576051;245;24106;-83
2023/05/18 02:22:15;;;;;;;8.83;3.17;;;4.60;99.90;3.70;101345;;;;575970;245;24121;-82
2023/05/18 02:24:45;;;;;;;10.33;2.93;;;4.60;99.90;3.70;101341;;;;576056;245;24140;-83
2023/05/18 02:27:14;;;;;;;16.10;4.20;;;4.80;99.90;3.60;101336;;;;575799;245;24128;-82
2023/05/18 02:29:39;;;;;;;16.53;4.27;;;4.60;99.90;3.60;101338;;;;575796;245;24110;-83
2023/05/18 02:32:08;;;;;;;18.00;4.00;;;4.60;99.90;3.60;101339;;;;575847;245;24128;-82
2023/05/18 02:34:37;;;;;;;14.60;4.00;;;4.50;99.90;3.60;101335;;;;575792;245;24147;-82
2023/05/18 02:37:05;;;;;;;12.03;3.13;;;4.50;99.90;3.60;101344;;;;575900;245;24193;-82
2023/05/18 02:39:34;;;;;;;13.43;3.63;;;4.50;99.90;3.60;101348;;;;575745;245;24100;-83
2023/05/18 02:42:02;;;;;;;11.90;4.17;;;4.50;99.90;3.60;101356;;;;575648;245;24102;-82
2023/05/18 02:44:30;;;;;;;16.67;4.50;;;4.60;99.90;3.60;101361;;;;575624;245;24082;-82
2023/05/18 02:46:58;;;;;;;9.93;3.23;;;4.60;99.90;3.50;101360;;;;575451;245;24086;-83
2023/05/18 02:49:29;;;;;;;12.77;4.17;;;5.50;99.90;3.60;101357;;;;575663;245;24093;-82
2023/05/18 02:51:54;;;;;;;9.97;3.50;;;4.50;99.90;3.60;101357;;;;574554;245;24145;-81
2023/05/18 02:54:23;;;;;;;8.10;2.50;;;4.70;99.90;3.50;101365;;;;575353;245;24091;-82
2023/05/18 02:56:55;;;;;;;17.57;3.90;;;4.50;99.90;3.50;101369;;;;575313;245;24092;-82
2023/05/18 02:59:20;;;;;;;12.03;3.27;;;4.40;99.90;3.50;101365;;;;574958;245;24205;-83
2023/05/18 03:01:48;;;;;;;12.82;4.12;;;4.40;99.90;3.60;101363;;;;570084;245;35304;-82
2023/05/18 03:04:16;;;;;;;7.40;2.37;;;4.50;99.90;3.60;101366;;;;575621;245;24174;-83
2023/05/18 03:06:46;;;;;;;14.70;3.70;;;4.50;99.90;3.60;101366;;;;575239;245;24127;-82
2023/05/18 03:09:12;;;;;;;19.17;5.43;;;4.60;99.90;3.60;101376;;;;575096;245;24144;-82
2023/05/18 03:11:40;;;;;;;13.03;3.67;;;4.50;99.90;3.60;101370;;;;575261;245;24059;-83
2023/05/18 03:14:08;;;;;;;17.10;3.83;;;4.70;99.90;3.60;101369;;;;576079;245;24124;-83
2023/05/18 03:16:37;;;;;;;6.90;2.60;;;4.60;99.90;3.60;101373;;;;576866;245;24106;-83
2023/05/18 03:19:04;;;;;;;31.17;6.70;;;4.70;99.90;3.70;101374;;;;576024;245;24111;-81
2023/05/18 03:21:34;;;;;;;16.67;4.67;;;4.60;99.90;3.70;101376;;;;575951;245;24123;-82
2023/05/18 03:24:05;;;;;;;23.07;5.97;;;4.70;99.90;3.80;101366;;;;575723;245;24142;-83
2023/05/18 03:26:30;;;;;;;10.20;3.77;;;4.70;99.90;3.80;101387;;;;575344;245;24136;-81
2023/05/18 03:29:01;;;;;;;14.63;4.47;;;4.70;99.90;3.90;101389;;;;575861;245;25155;-83
2023/05/18 03:31:27;;;;;;;10.17;3.20;;;4.90;99.90;4.00;101393;;;;575235;245;24131;-81
2023/05/18 03:33:55;;;;;;;11.27;3.30;;;5.10;99.90;4.10;101392;;;;575940;245;24146;-82
2023/05/18 03:36:26;;;;;;;9.20;2.97;;;5.10;99.90;4.30;101394;;;;575597;245;24140;-82
2023/05/18 03:38:51;;;;;;;12.20;2.77;;;5.30;99.90;4.40;101391;;;;575375;245;24134;-82
2023/05/18 03:41:20;;;;;;;7.03;2.40;;;5.30;99.90;4.60;101393;;;;575593;245;24109;-82
2023/05/18 03:43:47;;;;;;;7.50;2.93;;;5.70;99.90;4.80;101397;;;;575404;245;24106;-84
2023/05/18 03:46:15;;;;;;;6.93;2.70;;;5.80;99.90;5.00;101393;;;;575898;245;24126;-82
2023/05/18 03:48:46;;;;;;;11.80;2.70;;;6.30;99.90;5.20;101402;;;;575914;245;25117;-83
2023/05/18 03:51:12;;;;;;;4.10;2.00;;;6.20;99.90;5.40;101401;;;;575019;245;24106;-83
2023/05/18 03:53:41;;;;;;;8.30;2.23;;;6.30;99.90;5.60;101404;;;;575303;245;24149;-82
2023/05/18 03:56:08;;;;;;;8.30;2.90;;;6.40;99.90;5.80;101404;;;;575100;241;24131;-83
2023/05/18 03:58:36;;;;;;;4.13;1.80;;;6.90;99.90;6.00;101407;;;;575351;245;24137;-82
2023/05/18 04:01:04;;;;;;;6.37;2.40;;;7.10;99.90;6.20;101412;;;;575153;241;24067;-84
2023/05/18 04:03:33;;;;;;;6.17;2.40;;;7.10;99.90;6.50;101414;;;;575688;245;24091;-82
2023/05/18 04:05:59;;;;;;;6.27;1.73;;;7.70;99.90;6.90;101418;;;;575237;245;24105;-83
2023/05/18 04:08:29;;;;;;;11.10;2.60;;;8.30;99.90;7.50;101429;;;;575311;245;24130;-82
2023/05/18 04:10:55;;;;;;;4.10;1.80;;;8.60;99.90;8.10;101428;;;;575265;245;24159;-83
2023/05/18 04:13:23;;;;;;;8.60;3.00;;;9.60;99.90;8.80;101430;;;;570316;245;35267;-82
2023/05/18 04:15:51;;;;;;;14.73;3.33;;;10.90;99.90;9.60;101436;;;;575412;245;24095;-81
2023/05/18 04:18:19;;;;;;;4.00;1.90;;;12.00;99.90;10.40;101432;;;;575619;245;24106;-83
2023/05/18 04:20:47;;;;;;;10.07;3.07;;;11.80;99.90;11.10;101442;;;;567313;250;24164;-83
2023/05/18 04:23:15;;;;;;;8.07;1.80;;;12.60;99.90;11.70;101441;;;;575347;245;24088;-83
2023/05/18 04:25:43;;;;;;;6.83;2.70;;;13.10;99.90;12.20;101436;;;;565782;249;24117;-83
2023/05/18 04:28:11;;;;;;;7.03;2.50;;;13.40;99.90;12.50;101438;;;;586511;244;24117;-83
2023/05/18 04:30:39;;;;;;;8.27;2.47;;;13.40;99.90;12.50;101434;;;;565387;250;24107;-83
2023/05/18 04:33:07;;;;;;;8.77;2.27;;;13.40;99.90;12.80;101449;;;;566251;249;24155;-82
2023/05/18 04:35:35;;;;;;;16.60;3.20;;;14.20;99.90;13.10;101443;;;;584739;245;24126;-81
2023/05/18 04:38:04;;;;;;;9.33;2.90;;;14.50;99.90;13.60;101445;;;;565563;249;24149;-83
2023/05/18 04:40:32;;;;;;;7.30;1.90;;;15.10;99.90;14.10;101451;;;;575921;245;24091;-83
2023/05/18 04:43:00;;;;;;;7.80;2.60;;;15.20;99.90;14.50;101450;;;;565500;250;24159;-83
2023/05/18 04:45:29;;;;;;;7.47;2.10;;;15.70;99.90;14.90;101450;;;;575548;245;25176;-83
2023/05/18 04:47:57;;;;;;;7.33;2.50;;;16.20;99.90;15.50;101462;;;;565723;250;24152;-83
2023/05/18 04:50:24;;;;;;;11.30;3.73;;;17.20;99.90;16.40;101475;;;;576066;245;25221;-82
2023/05/18 04:52:56;;;;;;;10.10;2.63;;;18.00;99.90;17.30;101482;;;;564256;250;24137;-82
2023/05/18 04:55:27;;;;;;;9.03;2.67;;;18.90;99.40;18.10;101481;;;;575281;245;24107;-83
2023/05/18 04:57:59;;;;;;;7.87;2.40;;;19.80;96.40;18.90;101488;;;;585598;245;24097;-83
2023/05/18 05:00:29;;;;;;;5.27;2.33;;;20.60;93.20;19.80;101482;;;;575420;245;24123;-83
2023/05/18 05:02:54;;;;;;;15.43;2.67;;;21.40;90.40;20.60;101490;;;;565209;250;24153;-82
2023/05/18 05:05:26;;;;;;;7.67;2.27;;;22.30;86.60;21.40;101496;;;;575268;245;24158;-83
2023/05/18 05:07:51;;;;;;;15.40;2.60;;;22.20;86.10;22.20;101493;;;;564943;250;24114;-82
2023/05/18 05:10:19;;;;;;;10.10;2.70;;;24.00;75.20;23.30;101503;;;;565027;250;24155;-83
2023/05/18 05:12:47;;;;;;;5.27;2.20;;;24.10;74.20;24.30;101501;;;;575158;245;24084;-83
2023/05/18 05:15:18;;;;;;;6.57;2.23;;;25.20;69.60;25.10;101502;;;;564578;250;23152;-83
2023/05/18 05:17:43;;;;;;;4.07;1.83;;;26.10;63.50;25.60;101508;;;;565099;250;23163;-82
2023/05/18 05:20:10;;;;;;;3.53;1.43;;;26.60;59.50;26.40;101508;;;;585601;245;23144;-83
2023/05/18 05:22:38;;;;;;;8.55;2.45;;;27.30;57.70;26.70;101514;;;;564669;250;24177;-81
2023/05/18 05:25:06;;;;;;;5.82;1.73;;;27.60;55.40;27.10;101521;;;;565035;250;24168;-82
2023/05/18 05:27:34;;;;;;;5.53;2.60;;;28.50;52.20;27.50;101524;;;;564530;250;23156;-82
2023/05/18 05:30:03;;;;;;;9.68;2.85;;;28.90;51.40;28.10;101527;;;;565102;250;24181;-83
2023/05/18 05:32:32;;;;;;;7.45;2.17;;;29.60;50.30;28.90;101535;;;;567489;250;23141;-82
2023/05/18 05:34:59;;;;;;;7.25;2.35;;;29.50;50.30;30.00;101535;;;;575301;245;23087;-83
2023/05/18 05:37:28;;;;;;;7.20;2.25;;;30.70;49.10;31.10;101545;;;;565579;249;23125;-83
2023/05/18 05:39:55;;;;;;;5.28;2.03;;;31.80;47.20;32.10;101546;;;;565750;249;23107;-83
2023/05/18 05:42:24;;;;;;;3.12;1.50;;;32.80;45.30;32.80;101552;;;;571396;249;23121;-83
2023/05/18 05:44:51;;;;;;;6.05;1.75;;;33.60;43.10;33.30;101554;;;;586109;241;24090;-83
2023/05/18 05:47:19;;;;;;;8.93;2.62;;;34.10;41.90;33.80;101563;;;;565106;250;23161;-83
2023/05/18 05:49:47;;;;;;;3.03;1.58;;;34.60;41.10;34.10;101561;;;;565997;249;23134;-82
2023/05/18 05:52:16;;;;;;;9.48;2.87;;;35.40;39.30;34.50;101563;;;;585054;241;23115;-82
2023/05/18 05:54:44;;;;;;;3.75;1.55;;;35.50;38.10;34.70;101570;;;;564294;250;23120;-83
2023/05/18 05:57:12;;;;;;;10.60;2.67;;;35.80;37.50;35.20;101575;;;;575503;245;23133;-83
2023/05/18 05:59:52;;;;;;;8.38;2.20;;;35.80;37.90;35.60;101578;;;;565791;250;23147;-80
2023/05/18 06:02:19;;;;;;;4.85;1.92;;;36.20;37.70;35.80;101580;;;;575995;245;24166;-82
2023/05/18 06:04:47;;;;;;;7.07;2.90;;;36.40;36.70;35.80;101578;;;;586056;245;23176;-83
2023/05/18 06:07:15;;;;;;;6.18;2.10;;;36.50;35.90;35.50;101589;;;;575979;245;24155;-83
2023/05/18 06:09:49;;;;;;;35.95;3.42;;;36.30;35.50;35.00;101591;;;;565739;250;24149;-83
2023/05/18 06:12:12;;;;;;;6.85;2.25;;;35.90;35.80;35.20;101597;;;;564432;250;24176;-82
2023/05/18 06:14:41;;;;;;;15.10;3.25;;;36.10;34.90;35.40;101602;;;;564217;250;23227;-82
2023/05/18 06:17:10;;;;;;;13.27;2.22;;;36.00;34.90;35.30;101596;;;;564090;250;23153;-82
2023/05/18 06:19:38;;;;;;;15.55;2.95;;;36.00;34.90;35.60;101612;;;;564017;250;23176;-84
2023/05/18 06:22:05;;;;;;;9.32;2.58;;;36.20;35.40;36.00;101613;;;;563676;250;24160;-84
2023/05/18 06:24:34;;;;;;;12.93;1.83;;;36.30;33.40;35.50;101615;;;;563740;250;23165;-83
2023/05/18 06:27:03;;;;;;;18.12;2.85;;;36.00;33.70;35.10;101628;;;;563707;250;23157;-83
2023/05/18 06:29:32;;;;;;;7.07;2.37;;;35.70;34.50;34.90;101626;;;;563670;250;23137;-82
2023/05/18 06:32:00;;;;;;;2.00;1.05;;;35.70;34.50;35.00;101622;;;;563708;250;23182;-82
2023/05/18 06:34:27;;;;;;;5.90;1.40;;;35.70;33.70;35.10;101631;;;;563495;250;23212;-82
2023/05/18 06:36:55;;;;;;;4.47;1.70;;;35.70;33.80;35.20;101622;;;;563798;250;23126;-83
2023/05/18 06:39:23;;;;;;;7.85;2.75;;;35.90;33.20;35.30;101629;;;;563649;250;23126;-83
2023/05/18 06:41:51;;;;;;;3.47;1.62;;;36.00;33.70;35.90;101633;;;;563835;250;23170;-83
2023/05/18 06:44:19;;;;;;;4.32;1.83;;;36.40;34.10;36.70;101638;;;;563701;250;23166;-83
2023/05/18 06:46:47;;;;;;;9.70;0.95;;;37.00;33.70;37.50;101635;;;;563693;250;23163;-83
2023/05/18 06:49:16;;;;;;;2.08;1.42;;;38.50;32.50;38.10;101644;;;;564543;250;24236;-82
2023/05/18 06:51:44;;;;;;;5.43;2.03;;;39.10;32.30;38.80;101640;;;;565171;250;23183;-82
2023/05/18 06:54:12;;;;;;;6.70;2.22;;;39.00;32.20;39.60;101640;;;;564844;250;23141;-84
2023/05/18 06:56:40;;;;;;;5.45;1.87;;;39.80;30.00;38.90;101649;;;;564369;250;23163;-82
2023/05/18 06:59:08;;;;;;;2.05;1.48;;;39.60;30.70;39.10;101647;;;;564295;250;23168;-82
2023/05/18 07:01:36;;;;;;;2.87;1.52;;;39.60;30.50;39.60;101653;;;;564317;250;23152;-83
2023/05/18 07:04:04;;;;;;;4.75;1.65;;;39.80;29.60;39.10;101660;;;;563939;250;23139;-83
2023/05/18 07:06:32;;;;;;;4.10;1.55;;;39.70;29.30;39.00;101657;;;;564138;250;23114;-83
2023/05/18 07:09:00;;;;;;;2.53;1.25;;;39.70;29.80;39.40;101670;;;;563782;250;23172;-83
2023/05/18 07:11:28;;;;;;;6.30;1.83;;;39.90;29.80;39.50;101671;;;;564043;250;24160;-83
2023/05/18 07:13:55;;;;;;;2.47;1.33;;;40.00;29.70;39.40;101680;;;;563903;250;23165;-83
2023/05/18 07:16:24;;;;;;;5.28;1.70;;;39.40;29.50;38.80;101674;;;;563764;250;23105;-83
2023/05/18 07:18:53;;;;;;;3.28;1.10;;;39.50;30.00;39.10;101669;;;;563930;250;23136;-83
2023/05/18 07:21:22;;;;;;;6.97;1.27;;;39.70;29.50;39.40;101672;;;;563898;250;23125;-83
2023/05/18 07:23:51;;;;;;;2.60;1.50;;;39.70;29.50;39.30;101680;;;;564297;250;23197;-83
2023/05/18 07:26:17;;;;;;;3.25;1.15;;;39.80;29.60;39.30;101690;;;;563635;250;23134;-83
2023/05/18 07:28:46;;;;;;;3.22;1.85;;;39.80;29.40;39.30;101692;;;;563753;250;23158;-82
2023/05/18 07:31:15;;;;;;;5.95;2.33;;;39.70;29.10;39.20;101688;;;;563717;250;24153;-82
2023/05/18 07:33:41;;;;;;;6.18;2.17;;;39.70;29.90;39.30;101693;;;;563495;250;23143;-82
2023/05/18 07:36:09;;;;;;;7.18;2.03;;;39.70;29.80;39.60;101692;;;;563602;250;23161;-82
2023/05/18 07:38:37;;;;;;;6.75;2.08;;;39.90;29.70;39.30;101697;;;;563704;250;23114;-82
2023/05/18 07:41:06;;;;;;;3.87;1.40;;;39.50;29.50;39.00;101703;;;;563785;250;23167;-83
2023/05/18 07:43:34;;;;;;;3.45;1.60;;;39.50;29.50;39.20;101704;;;;563685;250;23129;-82
2023/05/18 07:46:01;;;;;;;7.25;1.90;;;39.60;28.60;39.10;101707;;;;563846;250;23137;-82
2023/05/18 07:48:29;;;;;;;2.83;1.55;;;39.50;28.60;39.10;101702;;;;558792;250;35487;-83
2023/05/18 07:50:57;;;;;;;7.18;1.92;;;39.70;29.30;39.20;101698;;;;563656;250;23138;-83
2023/05/18 07:53:25;;;;;;;6.95;1.60;;;39.70;29.60;39.90;101714;;;;564068;250;23114;-83
2023/05/18 07:55:53;;;;;;;4.00;1.42;;;40.20;29.60;40.30;101708;;;;563985;250;23126;-82
2023/05/18 07:58:21;;;;;;;6.07;1.62;;;40.60;28.80;40.40;101708;;;;563770;250;23163;-83
2023/05/18 08:00:49;;;;;;;6.90;2.25;;;40.80;29.20;40.20;101712;;;;564675;250;23110;-84
2023/05/18 08:03:20;;;;;;;5.87;1.45;;;40.80;28.90;40.00;101715;;;;564633;250;23116;-82
2023/05/18 08:05:45;;;;;;;3.30;1.35;;;40.50;29.20;40.50;101717;;;;564244;250;24213;-83
2023/05/18 08:08:14;;;;;;;3.12;1.45;;;40.80;28.80;41.00;101723;;;;564450;250;23109;-82
2023/05/18 08:10:43;;;;;;;3.67;1.10;;;41.30;28.20;41.20;101712;;;;564214;250;23146;-83
2023/05/18 08:13:12;;;;;;;8.95;2.55;;;42.00;28.50;41.40;101722;;;;564187;250;23177;-83
2023/05/18 08:15:41;;;;;;;4.40;1.90;;;42.20;27.20;41.70;101728;;;;559637;250;35585;-82
2023/05/18 08:18:09;;;;;;;5.97;1.85;;;42.20;27.30;40.40;101719;;;;564087;250;23169;-82
2023/05/18 08:20:37;;;;;;;8.82;2.28;;;41.70;27.10;39.60;101735;;;;563886;250;23115;-83
2023/05/18 08:23:05;;;;;;;9.20;2.35;;;41.00;27.80;39.40;101727;;;;563953;250;23115;-81
2023/05/18 08:25:32;;;;;;;6.45;2.08;;;40.50;28.40;39.70;101720;;;;564323;250;24163;-82
2023/05/18 08:28:00;;;;;;;4.53;1.85;;;40.50;28.00;39.80;101730;;;;564047;250;23153;-82
2023/05/18 08:30:28;;;;;;;6.87;2.15;;;40.60;28.10;39.90;101727;;;;563923;250;23139;-82
2023/05/18 08:32:57;;;;;;;6.22;1.85;;;40.60;28.20;40.30;101729;;;;563860;250;23099;-82
2023/05/18 08:35:24;;;;;;;10.27;2.30;;;40.80;28.50;41.00;101735;;;;563892;250;24181;-82
2023/05/18 08:37:52;;;;;;;18.30;2.87;;;41.50;28.00;41.30;101733;;;;563693;250;23162;-82
2023/05/18 08:40:21;;;;;;;12.93;2.45;;;42.00;27.80;41.10;101732;;;;563808;250;23152;-82
2023/05/18 08:43:09;;;;;;;6.28;2.25;;;42.00;27.40;41.20;101739;;;;563779;250;23134;-81
2023/05/18 08:45:57;;;;;;;16.50;3.17;;;42.00;27.40;41.30;101736;;;;563014;250;24145;-83
2023/05/18 08:48:25;;;;;;;3.53;1.15;;;42.20;27.00;41.10;101739;;;;563746;250;24226;-83
2023/05/18 08:50:57;;;;;;;4.05;1.75;;;42.20;26.90;40.80;101739;;;;563642;250;23115;-83
2023/05/18 08:53:21;;;;;;;3.83;1.65;;;42.10;26.90;41.00;101744;;;;563485;250;23177;-83
2023/05/18 08:55:49;;;;;;;6.82;1.40;;;42.10;27.30;41.20;101737;;;;563972;250;23132;-83
2023/05/18 08:58:17;;;;;;;3.65;1.75;;;42.20;27.50;41.20;101740;;;;563718;250;23134;-83
2023/05/18 09:00:45;;;;;;;7.53;2.00;;;42.20;27.10;41.40;101740;;;;563549;250;23170;-84
2023/05/18 09:03:17;;;;;;;7.10;1.85;;;42.40;27.10;42.10;101746;;;;563656;250;23176;-83
2023/05/18 09:05:41;;;;;;;2.58;1.20;;;43.00;26.60;41.60;101754;;;;563628;250;23118;-82
2023/05/18 09:08:09;;;;;;;7.00;2.00;;;42.70;27.10;41.00;101744;;;;563751;250;23154;-82
2023/05/18 09:10:37;;;;;;;9.60;1.87;;;42.70;27.10;41.20;101740;;;;563729;250;23107;-83
2023/05/18 09:13:06;;;;;;;4.22;1.23;;;42.70;27.20;41.80;101740;;;;565106;250;23147;-83
2023/05/18 09:15:34;;;;;;;7.87;2.55;;;43.20;26.80;41.70;101748;;;;564526;250;23164;-83
2023/05/18 09:18:02;;;;;;;6.32;2.80;;;43.10;26.70;41.20;101743;;;;564471;250;23219;-85
2023/05/18 09:20:33;;;;;;;9.95;2.03;;;42.90;27.20;41.10;101738;;;;564495;250;23147;-83
2023/05/18 09:23:01;;;;;;;4.10;1.50;;;42.70;27.30;41.20;101743;;;;564057;250;23163;-86
2023/05/18 09:25:26;;;;;;;15.30;2.75;;;42.60;27.30;41.20;101736;;;;564774;250;23154;-83
2023/05/18 09:27:54;;;;;;;6.60;1.50;;;42.50;27.60;41.50;101749;;;;563362;250;23161;-88
2023/05/18 09:30:21;;;;;;;8.68;2.22;;;42.60;27.00;41.40;101744;;;;574946;246;23112;-87
2023/05/18 09:32:49;;;;;;;10.48;3.40;;;42.70;26.90;41.70;101750;;;;574779;246;24130;-85
2023/05/18 09:35:20;;;;;;;7.85;1.90;;;42.80;26.70;41.30;101743;;;;574821;246;24158;-87
2023/05/18 09:37:45;;;;;;;3.25;1.33;;;42.80;27.30;41.40;101744;;;;574492;246;23240;-85
2023/05/18 09:40:15;;;;;;;5.55;1.45;;;42.80;27.40;41.70;101739;;;;567650;245;23113;-84
2023/05/18 09:42:41;;;;;;;7.72;2.55;;;43.00;27.20;42.30;101747;;;;580731;245;23119;-84
2023/05/18 09:45:22;;;;;;;15.60;2.80;;;43.70;27.00;42.10;101747;;;;573287;250;23109;-85
2023/05/18 09:47:51;;;;;;;11.38;2.12;;;43.70;26.80;41.90;101742;;;;564967;247;23148;-85
2023/05/18 09:50:20;;;;;;;26.08;4.53;;;43.10;27.10;41.30;101743;;;;571540;245;23140;-88
2023/05/18 09:52:49;;;;;;;21.52;3.85;;;43.30;26.50;41.80;101751;;;;564437;250;23118;-85
2023/05/18 09:55:21;;;;;;;4.12;1.42;;;43.20;26.40;41.20;101752;;;;570527;248;23114;-83
2023/05/18 09:57:46;;;;;;;9.80;2.62;;;42.70;26.70;40.50;101736;;;;569881;250;23157;-85
2023/05/18 10:00:17;;;;;;;10.98;3.20;;;42.60;27.00;40.50;101750;;;;570041;245;23358;-86
2023/05/18 10:02:44;;;;;;;13.80;3.50;;;42.60;27.10;40.70;101744;;;;574941;245;23100;-82
2023/05/18 10:05:26;;;;;;;15.90;2.50;;;42.60;26.60;39.70;101758;;;;573668;245;23117;-81
2023/05/18 10:07:56;;;;;;;15.18;3.95;;;41.40;26.80;39.20;101750;;;;575083;246;23120;-86
2023/05/18 10:10:28;;;;;;;13.38;3.33;;;41.40;27.20;39.10;101751;;;;568829;245;23108;-88
2023/05/18 10:12:56;;;;;;;10.40;3.15;;;40.80;27.40;38.90;101763;;;;575142;245;23105;-84
2023/05/18 10:15:23;;;;;;;17.35;4.03;;;40.40;27.10;38.60;101755;;;;583895;245;23166;-81
2023/05/18 10:17:51;;;;;;;21.60;5.62;;;39.50;27.20;37.00;101754;;;;574632;245;23116;-82
2023/05/18 10:20:19;;;;;;;5.18;1.60;;;38.40;27.50;36.00;101750;;;;575064;245;23117;-82
2023/05/18 10:22:47;;;;;;;14.85;3.72;;;37.30;28.20;34.80;101747;;;;575389;243;23125;-82
2023/05/18 10:25:16;;;;;;;17.30;2.97;;;36.30;29.00;33.90;101752;;;;575465;245;23138;-82
2023/05/18 10:27:45;;;;;;;12.50;2.67;;;35.20;29.70;33.10;101764;;;;576308;245;23128;-80
2023/05/18 10:30:13;;;;;;;15.02;3.67;;;34.20;30.50;32.20;101753;;;;576224;245;23173;-82
2023/05/18 10:32:41;;;;;;;14.60;3.70;;;33.20;30.70;31.20;101752;;;;575691;245;23135;-81
2023/05/18 10:35:13;;;;;;;21.87;3.78;;;32.00;32.10;30.10;101752;;;;575406;245;23145;-81
2023/05/18 10:37:40;;;;;;;1.95;0.90;;;30.70;33.30;29.00;101743;;;;575860;245;23094;-82
2023/05/18 10:40:08;;;;;;;10.23;1.98;;;29.20;34.30;28.00;101750;;;;576064;245;23122;-81
2023/05/18 10:42:37;;;;;;;5.97;2.10;;;27.70;36.20;26.50;101747;;;;575890;245;24122;-81
2023/05/18 10:45:05;;;;;;;3.10;1.00;;;26.00;36.80;24.80;101749;;;;576057;245;23085;-80
2023/05/18 10:47:34;;;;;;;8.67;2.33;;;24.70;38.70;23.30;101747;;;;575748;245;23104;-80
2023/05/18 10:50:04;;;;;;;9.57;1.60;;;23.00;41.30;21.90;101737;;;;575667;245;24088;-82
2023/05/18 10:52:30;;;;;;;4.33;1.60;;;21.90;43.30;20.90;101734;;;;574799;245;24095;-81
2023/05/18 10:55:00;;;;;;;4.50;1.20;;;21.10;44.10;20.30;101728;;;;575776;245;24127;-81
2023/05/18 10:57:40;;;;;;;3.57;1.60;;;20.40;46.20;19.50;101729;;;;576014;245;24099;-80
2023/05/18 11:00:09;;;;;;;2.97;1.17;;;19.30;47.50;18.80;101719;;;;575819;245;24150;-81
2023/05/18 11:02:41;;;;;;;3.87;1.30;;;19.00;48.50;18.20;101723;;;;575301;245;24128;-81
2023/05/18 11:05:08;;;;;;;5.77;1.50;;;18.10;49.40;17.80;101733;;;;575613;245;24092;-81
2023/05/18 11:07:36;;;;;;;5.60;1.37;;;17.90;50.10;17.30;101729;;;;575433;245;24129;-81
2023/05/18 11:10:10;;;;;;;5.07;1.47;;;17.50;51.50;16.90;101720;;;;575357;245;24084;-80
2023/05/18 11:12:38;;;;;;;6.30;1.17;;;17.20;52.20;16.60;101723;;;;584056;245;24114;-79
2023/05/18 11:15:10;;;;;;;6.43;1.23;;;17.20;53.10;16.40;101720;;;;575377;245;24119;-83
2023/05/18 11:17:35;;;;;;;5.10;1.10;;;16.80;53.50;16.20;101725;;;;575288;245;24080;-81
2023/05/18 11:20:11;;;;;;;3.47;1.00;;;16.40;54.10;15.90;101719;;;;575413;245;24138;-81
2023/05/18 11:22:58;;;;;;;6.23;1.40;;;16.20;55.30;15.70;101721;;;;575477;245;24120;-81